Time;durP1;ratioP1;P1;durP2;ratioP2;P2;SDS_P1;SDS_P2;PMS_P1;PMS_P2;Temp;Humidity;BMP_temperature;BMP_pressure;BME280_temperature;BME280_humidity;BME280_pressure;Samples;Min_cycle;Max_cycle;Signal;HPM_P1;HPM_P2
2024/01/29 00:00:16;;;;;;;;;44.00;37.25;;;;;8.52;75.73;101957.06;5046135;28;68784;-62
2024/01/29 00:02:44;;;;;;;;;50.00;37.75;;;;;8.51;76.03;101958.78;5043017;28;45497;-62
2024/01/29 00:05:10;;;;;;;;;44.75;36.00;;;;;8.50;75.93;101959.66;5038265;28;52143;-62
2024/01/29 00:07:36;;;;;;;;;47.25;35.25;;;;;8.51;75.83;101964.00;5040530;28;45366;-62
2024/01/29 00:10:01;;;;;;;;;67.25;55.00;;;;;8.51;75.81;101970.97;5041830;28;45225;-62
2024/01/29 00:12:26;;;;;;;;;61.50;47.00;;;;;8.52;75.71;101968.38;5048015;28;70180;-62
2024/01/29 00:14:52;;;;;;;;;49.25;36.75;;;;;8.50;75.81;101977.94;5039588;28;72121;-62
2024/01/29 00:17:17;;;;;;;;;43.00;36.50;;;;;8.49;75.72;101973.56;5040959;28;45391;-62
2024/01/29 00:19:43;;;;;;;;;41.25;36.25;;;;;8.47;75.64;101977.91;5039362;28;57856;-61
2024/01/29 00:22:08;;;;;;;;;49.67;36.00;;;;;8.45;75.79;101976.19;5037749;28;69406;-62
2024/01/29 00:24:33;;;;;;;;;47.00;35.25;;;;;8.42;75.48;101979.63;5042549;28;45742;-62
2024/01/29 00:26:59;;;;;;;;;44.25;38.00;;;;;8.41;75.83;101974.38;5039409;28;66950;-61
2024/01/29 00:29:24;;;;;;;;;51.25;39.00;;;;;8.39;75.82;101976.97;5038852;28;45457;-61
2024/01/29 00:31:49;;;;;;;;;55.33;37.33;;;;;8.38;75.93;101974.41;5042653;28;68142;-61
2024/01/29 00:34:15;;;;;;;;;45.75;36.00;;;;;8.37;75.76;101970.91;5042489;28;45284;-62
2024/01/29 00:36:40;;;;;;;;;48.25;37.25;;;;;8.36;75.95;101979.63;5039781;28;45252;-61
2024/01/29 00:39:09;;;;;;;;;46.50;36.00;;;;;8.35;75.98;101980.47;5039481;28;45440;-62
2024/01/29 00:41:37;;;;;;;;;40.00;34.00;;;;;8.33;75.92;101979.59;5039610;28;45369;-61
2024/01/29 00:44:02;;;;;;;;;43.50;35.75;;;;;8.33;76.07;101977.84;5039223;28;46398;-60
2024/01/29 00:46:28;;;;;;;;;56.25;39.50;;;;;8.31;75.80;101982.19;5046421;28;48696;-62
2024/01/29 00:48:53;;;;;;;;;43.75;33.75;;;;;8.31;75.88;101976.97;5038850;28;45299;-62
2024/01/29 00:51:19;;;;;;;;;39.50;35.75;;;;;8.30;76.04;101983.06;5037977;28;65650;-62
2024/01/29 00:53:44;;;;;;;;;44.50;36.75;;;;;8.30;75.96;101972.63;5040013;28;45213;-62
2024/01/29 00:56:09;;;;;;;;;46.33;37.00;;;;;8.27;75.85;101975.25;5038607;28;74670;-61
2024/01/29 00:58:35;;;;;;;;;45.50;36.00;;;;;8.28;76.18;101979.56;5035706;28;45408;-63
2024/01/29 01:01:00;;;;;;;;;40.75;35.50;;;;;8.28;75.91;101978.72;5041668;28;45632;-62
2024/01/29 01:03:26;;;;;;;;;50.25;40.00;;;;;8.26;76.09;101973.50;5051054;28;51962;-62
2024/01/29 01:05:51;;;;;;;;;41.00;36.00;;;;;8.30;76.07;101979.59;5044201;28;74676;-61
2024/01/29 01:08:16;;;;;;;;;40.75;34.75;;;;;8.30;75.93;101980.44;5038947;28;66592;-61
2024/01/29 01:10:42;;;;;;;;;49.75;36.25;;;;;8.30;75.89;101982.19;5043923;28;45371;-63
2024/01/29 01:13:07;;;;;;;;;43.50;35.75;;;;;8.29;75.88;101977.84;5050583;28;45326;-62
2024/01/29 01:15:33;;;;;;;;;47.25;37.25;;;;;8.30;76.05;101976.97;5041132;28;75623;-62
2024/01/29 01:18:00;;;;;;;;;46.50;33.25;;;;;8.28;75.94;101971.75;5045175;28;45378;-63
2024/01/29 01:20:25;;;;;;;;;38.50;31.50;;;;;8.28;75.72;101970.88;5048057;28;45470;-63
2024/01/29 01:22:50;;;;;;;;;52.00;34.25;;;;;8.30;75.94;101971.75;5052049;28;56895;-63
2024/01/29 01:25:16;;;;;;;;;48.25;36.00;;;;;8.29;75.94;101968.28;5084530;27;72816;-63
2024/01/29 01:27:41;;;;;;;;;42.25;34.00;;;;;8.31;75.92;101971.75;5048353;28;70994;-63
2024/01/29 01:30:07;;;;;;;;;43.25;37.00;;;;;8.31;75.68;101966.53;5049565;28;69415;-63
2024/01/29 01:32:32;;;;;;;;;41.75;35.25;;;;;8.33;75.80;101967.41;5046349;28;46921;-63
2024/01/29 01:34:57;;;;;;;;;50.00;35.00;;;;;8.33;75.89;101980.47;5046699;28;75488;-63
2024/01/29 01:37:23;;;;;;;;;42.75;35.75;;;;;8.32;75.81;101978.72;5047725;28;69677;-61
2024/01/29 01:39:52;;;;;;;;;49.25;35.50;;;;;8.34;75.85;101986.56;5042976;28;68143;-62
2024/01/29 01:42:21;;;;;;;;;43.00;34.25;;;;;8.32;75.78;101986.56;5042660;28;45327;-62
2024/01/29 01:44:46;;;;;;;;;37.75;32.75;;;;;8.31;75.83;101984.81;5043985;28;46162;-62
2024/01/29 01:47:12;;;;;;;;;38.25;33.00;;;;;8.31;75.90;101983.94;5048311;28;45549;-61
2024/01/29 01:49:37;;;;;;;;;44.75;33.50;;;;;8.31;75.98;101991.78;5050077;28;69270;-62
2024/01/29 01:52:04;;;;;;;;;37.75;33.00;;;;;8.32;76.01;101990.88;5076319;27;45364;-62
2024/01/29 01:54:30;;;;;;;;;37.50;32.00;;;;;8.33;75.99;101979.59;5078266;27;45567;-62
2024/01/29 01:56:57;;;;;;;;;45.00;36.25;;;;;8.31;76.11;101984.81;5079987;27;72189;-62
2024/01/29 01:59:23;;;;;;;;;35.25;31.75;;;;;8.34;76.20;101990.03;5073794;27;45357;-62
2024/01/29 02:01:49;;;;;;;;;43.50;34.50;;;;;8.34;75.97;101991.78;5073439;27;45362;-62
2024/01/29 02:04:14;;;;;;;;;39.00;31.75;;;;;8.35;76.14;101993.50;5040759;28;45468;-62
2024/01/29 02:06:40;;;;;;;;;41.75;36.25;;;;;8.35;76.03;101990.91;5040236;28;67674;-61
2024/01/29 02:09:06;;;;;;;;;46.00;37.25;;;;;8.35;75.95;101988.28;5042417;28;45431;-62
2024/01/29 02:11:31;;;;;;;;;42.25;35.00;;;;;8.36;76.04;101993.50;5057925;28;45268;-62
2024/01/29 02:13:56;;;;;;;;;43.00;35.75;;;;;8.37;76.14;101991.78;5058186;28;75256;-61
2024/01/29 02:16:21;;;;;;;;;46.00;36.50;;;;;8.36;75.98;101990.91;5042352;28;45187;-62
2024/01/29 02:18:47;;;;;;;;;36.75;30.75;;;;;8.36;76.05;101990.91;5040883;28;45369;-62
2024/01/29 02:21:13;;;;;;;;;42.25;37.00;;;;;8.36;76.24;101997.88;5073736;27;73293;-62
2024/01/29 02:23:43;;;;;;;;;48.75;35.25;;;;;8.36;76.03;101995.25;5042182;28;46258;-62
2024/01/29 02:26:08;;;;;;;;;45.25;35.00;;;;;8.36;76.08;102006.56;5052316;28;45564;-62
2024/01/29 02:28:33;;;;;;;;;44.75;30.50;;;;;8.35;76.16;102003.94;5044845;28;69083;-61
2024/01/29 02:30:58;;;;;;;;;39.25;33.00;;;;;8.35;75.92;102010.03;5057596;28;68729;-61
2024/01/29 02:33:24;;;;;;;;;47.75;36.75;;;;;8.34;76.09;102010.03;5049270;28;68592;-62
2024/01/29 02:35:49;;;;;;;;;34.50;29.50;;;;;8.34;76.01;102005.69;5042286;28;61280;-62
2024/01/29 02:38:14;;;;;;;;;40.50;34.25;;;;;8.34;76.13;102007.44;5040027;28;62609;-62
2024/01/29 02:40:40;;;;;;;;;46.75;36.75;;;;;8.34;76.04;102002.22;5041471;28;45344;-62
2024/01/29 02:43:05;;;;;;;;;45.50;36.00;;;;;8.33;76.24;102000.47;5042354;28;74534;-62
2024/01/29 02:45:30;;;;;;;;;34.25;30.75;;;;;8.33;76.07;102003.94;5039363;28;70730;-62
2024/01/29 02:47:56;;;;;;;;;38.50;33.75;;;;;8.33;76.09;101992.63;5074774;27;69222;-62
2024/01/29 02:50:22;;;;;;;;;36.75;29.00;;;;;8.32;75.92;101999.59;5048807;28;51798;-62
2024/01/29 02:52:48;;;;;;;;;38.25;32.25;;;;;8.31;76.03;102005.66;5056830;28;45409;-62
2024/01/29 02:55:13;;;;;;;;;40.25;33.25;;;;;8.31;75.95;102002.19;5044159;28;45404;-61
2024/01/29 02:57:39;;;;;;;;;40.25;34.00;;;;;8.29;76.08;101998.72;5046614;28;68985;-62
2024/01/29 03:00:05;;;;;;;;;43.00;36.50;;;;;8.28;76.05;101999.56;5044128;28;45639;-62
2024/01/29 03:02:30;;;;;;;;;38.25;32.25;;;;;8.29;76.22;102002.19;5041925;28;46642;-63
2024/01/29 03:04:56;;;;;;;;;40.25;31.75;;;;;8.28;75.96;102004.78;5041962;28;67327;-62
2024/01/29 03:07:21;;;;;;;;;34.00;30.25;;;;;8.27;76.31;102003.03;5044517;28;45400;-62
2024/01/29 03:09:46;;;;;;;;;41.00;32.00;;;;;8.26;76.10;101999.56;5040979;28;73051;-62
2024/01/29 03:12:12;;;;;;;;;32.00;30.00;;;;;8.24;76.15;102003.91;5044265;28;45570;-62
2024/01/29 03:14:38;;;;;;;;;34.75;32.00;;;;;8.24;76.14;102001.31;5040590;28;60857;-62
2024/01/29 03:17:03;;;;;;;;;36.75;33.25;;;;;8.23;76.29;101999.56;5047367;28;45432;-63
2024/01/29 03:19:29;;;;;;;;;35.00;32.75;;;;;8.23;76.51;101999.56;5044274;28;46059;-62
2024/01/29 03:21:54;;;;;;;;;35.50;28.25;;;;;8.24;76.50;102003.06;5041374;28;61112;-62
2024/01/29 03:24:19;;;;;;;;;38.25;29.25;;;;;8.24;76.36;102008.25;5046031;28;72292;-61
2024/01/29 03:26:44;;;;;;;;;42.50;31.00;;;;;8.23;76.38;102004.75;5050423;28;69403;-62
2024/01/29 03:29:10;;;;;;;;;36.00;31.75;;;;;8.24;76.60;102000.44;5051810;28;72537;-62
2024/01/29 03:31:35;;;;;;;;;40.50;31.75;;;;;8.24;76.57;102005.66;5048098;28;45374;-62
2024/01/29 03:34:00;;;;;;;;;32.75;29.00;;;;;8.24;76.66;102003.91;5045754;28;72504;-62
2024/01/29 03:36:26;;;;;;;;;38.50;30.25;;;;;8.25;76.61;102010.00;5050426;28;67954;-60
2024/01/29 03:38:51;;;;;;;;;33.00;24.75;;;;;8.27;76.72;102005.66;5051428;28;71451;-62
2024/01/29 03:41:16;;;;;;;;;32.75;28.50;;;;;8.27;76.99;101997.81;5045675;28;73543;-62
2024/01/29 03:43:42;;;;;;;;;34.50;26.75;;;;;8.27;76.75;102000.44;5050031;28;59549;-62
2024/01/29 03:46:07;;;;;;;;;33.25;28.75;;;;;8.29;76.74;101988.28;5042046;28;69252;-62
2024/01/29 03:48:32;;;;;;;;;24.00;22.50;;;;;8.26;76.87;101991.75;5038156;28;69440;-62
2024/01/29 03:50:58;;;;;;;;;31.25;27.25;;;;;8.26;77.11;101985.66;5077199;27;46166;-62
2024/01/29 03:53:23;;;;;;;;;32.50;24.75;;;;;8.26;77.03;101980.44;5043673;28;45226;-61
2024/01/29 03:55:48;;;;;;;;;39.50;30.50;;;;;8.25;77.24;101994.34;5048867;28;50023;-61
2024/01/29 03:58:14;;;;;;;;;30.50;25.25;;;;;8.24;77.26;101990.88;5048704;28;71731;-61
2024/01/29 04:00:39;;;;;;;;;31.50;24.00;;;;;8.26;77.49;101990.88;5038572;28;75680;-61
2024/01/29 04:03:06;;;;;;;;;34.25;24.00;;;;;8.27;77.27;101990.88;5040056;28;45645;-62
2024/01/29 04:05:32;;;;;;;;;34.00;26.00;;;;;8.27;77.50;101990.00;5043662;28;45500;-62
2024/01/29 04:07:57;;;;;;;;;32.50;25.00;;;;;8.28;77.57;101994.34;5040426;28;46306;-62
2024/01/29 04:10:23;;;;;;;;;28.75;24.00;;;;;8.28;77.49;101989.16;5043299;28;46081;-62
2024/01/29 04:12:48;;;;;;;;;24.00;20.75;;;;;8.28;77.52;101995.22;5037018;28;45299;-62
2024/01/29 04:15:14;;;;;;;;;30.75;24.00;;;;;8.29;77.52;101981.31;5045461;28;67425;-62
2024/01/29 04:17:39;;;;;;;;;28.75;21.75;;;;;8.29;77.70;101983.94;5054131;28;45326;-62
2024/01/29 04:20:05;;;;;;;;;29.50;22.00;;;;;8.28;77.51;101984.78;5054045;28;45960;-63
2024/01/29 04:22:34;;;;;;;;;27.00;23.25;;;;;8.26;77.95;101980.44;5047739;28;45535;-62
2024/01/29 04:25:04;;;;;;;;;29.00;25.50;;;;;8.26;77.92;101998.72;5048203;28;45484;-63
2024/01/29 04:27:30;;;;;;;;;30.25;22.75;;;;;8.28;77.84;102007.41;5053648;28;45495;-62
2024/01/29 04:29:55;;;;;;;;;30.50;24.50;;;;;8.27;77.86;101997.81;5045169;28;46308;-62
2024/01/29 04:32:20;;;;;;;;;23.25;22.00;;;;;8.28;77.84;102003.03;5053121;28;71449;-62
2024/01/29 04:34:46;;;;;;;;;28.00;20.25;;;;;8.29;77.91;101996.97;5038591;28;69194;-62
2024/01/29 04:37:11;;;;;;;;;23.50;22.50;;;;;8.29;77.84;102007.41;5052607;28;50975;-62
2024/01/29 04:39:38;;;;;;;;;30.00;24.25;;;;;8.30;77.92;102011.75;5041898;28;58696;-63
2024/01/29 04:42:03;;;;;;;;;32.50;23.75;;;;;8.31;77.86;102008.28;5039821;28;45307;-62
2024/01/29 04:44:29;;;;;;;;;24.25;18.75;;;;;8.32;78.06;102009.13;5039409;28;45194;-61
2024/01/29 04:46:54;;;;;;;;;30.00;24.50;;;;;8.33;77.83;102022.19;5042971;28;70545;-60
2024/01/29 04:49:19;;;;;;;;;11.25;3.75;;;;;8.34;77.91;102021.34;5055498;28;45545;-61
2024/01/29 04:51:45;;;;;;;;;25.00;19.50;;;;;8.35;78.14;102025.66;5040364;28;67966;-62
2024/01/29 04:54:10;;;;;;;;;20.00;17.25;;;;;8.35;78.05;102015.22;5034141;28;67087;-62
2024/01/29 04:56:35;;;;;;;;;21.75;21.00;;;;;8.35;78.10;102020.44;5039300;28;45236;-62
2024/01/29 04:59:01;;;;;;;;;27.00;20.00;;;;;8.36;78.20;102024.81;5041569;28;74074;-62
2024/01/29 05:01:26;;;;;;;;;24.00;19.50;;;;;8.37;78.10;102020.47;5038877;28;45286;-62
2024/01/29 05:03:53;;;;;;;;;18.50;17.00;;;;;8.37;78.40;102023.06;5041105;28;68454;-62
2024/01/29 05:06:18;;;;;;;;;22.50;19.25;;;;;8.34;78.35;102023.94;5044120;28;45465;-62
2024/01/29 05:08:44;;;;;;;;;24.00;19.25;;;;;8.36;78.37;102023.97;5039233;28;45945;-62
2024/01/29 05:11:09;;;;;;;;;11.00;6.25;;;;;8.37;78.30;102028.28;5068890;27;45483;-62
2024/01/29 05:13:34;;;;;;;;;22.00;18.25;;;;;8.37;78.18;102028.28;5035032;28;55331;-62
2024/01/29 05:16:00;;;;;;;;;24.00;20.50;;;;;8.36;78.16;102030.03;5034936;28;49070;-62
2024/01/29 05:18:25;;;;;;;;;21.50;19.00;;;;;8.36;78.17;102026.56;5035513;28;46966;-62
2024/01/29 05:20:51;;;;;;;;;22.25;19.25;;;;;8.35;78.45;102024.81;5035227;28;45272;-62
2024/01/29 05:23:16;;;;;;;;;20.25;17.50;;;;;8.34;78.34;102017.88;5036511;28;45444;-62
2024/01/29 05:25:43;;;;;;;;;25.50;19.25;;;;;8.36;78.51;102021.34;5034508;28;68055;-62
2024/01/29 05:28:08;;;;;;;;;23.50;19.75;;;;;8.35;78.41;102022.19;5034646;28;45466;-62
2024/01/29 05:30:33;;;;;;;;;19.50;17.75;;;;;8.36;78.45;102029.16;5038521;28;45438;-62
2024/01/29 05:32:59;;;;;;;;;19.75;17.75;;;;;8.34;78.56;102020.47;5035090;28;70347;-62
2024/01/29 05:35:24;;;;;;;;;19.50;16.75;;;;;8.37;78.58;102023.06;5035480;28;45287;-62
2024/01/29 05:37:49;;;;;;;;;24.50;15.00;;;;;8.36;78.43;102027.41;5038820;28;46262;-61
2024/01/29 05:40:15;;;;;;;;;24.75;19.25;;;;;8.38;78.76;102024.81;5034926;28;73028;-62
2024/01/29 05:42:40;;;;;;;;;23.75;20.00;;;;;8.39;78.63;102028.28;5032209;28;45223;-62
2024/01/29 05:45:06;;;;;;;;;21.25;15.25;;;;;8.40;78.78;102027.44;5036358;28;46109;-62
2024/01/29 05:47:32;;;;;;;;;20.75;15.00;;;;;8.40;78.68;102032.66;5036115;28;46007;-61
2024/01/29 05:49:58;;;;;;;;;20.25;18.75;;;;;8.41;78.56;102037.00;5026302;28;45453;-62
2024/01/29 05:52:23;;;;;;;;;15.50;15.50;;;;;8.42;78.65;102031.81;5035232;28;69169;-61
2024/01/29 05:54:48;;;;;;;;;20.00;18.00;;;;;8.44;78.80;102042.25;5037229;28;45601;-62
2024/01/29 05:57:14;;;;;;;;;18.25;16.00;;;;;8.44;78.72;102043.13;5035682;28;75577;-61
2024/01/29 05:59:39;;;;;;;;;16.25;12.00;;;;;8.45;78.34;102044.00;5036474;28;72453;-62
2024/01/29 06:02:05;;;;;;;;;19.50;17.25;;;;;8.43;78.52;102044.00;5039370;28;45458;-62
2024/01/29 06:04:30;;;;;;;;;22.75;20.25;;;;;8.42;78.48;102043.97;5039824;28;67204;-62
2024/01/29 06:06:55;;;;;;;;;27.00;19.50;;;;;8.42;78.85;102055.28;5038104;28;74476;-62
2024/01/29 06:09:22;;;;;;;;;25.50;19.25;;;;;8.42;78.38;102052.69;5039249;28;71919;-62
2024/01/29 06:11:49;;;;;;;;;21.50;17.50;;;;;8.42;78.66;102060.50;5039271;28;45558;-62
2024/01/29 06:14:14;;;;;;;;;4.00;3.00;;;;;8.41;78.82;102056.16;5038771;28;45165;-62
2024/01/29 06:16:40;;;;;;;;;21.25;18.50;;;;;8.40;78.79;102058.75;5038381;28;46596;-62
2024/01/29 06:19:05;;;;;;;;;24.25;18.00;;;;;8.44;79.08;102061.38;5037514;28;71987;-62
2024/01/29 06:21:31;;;;;;;;;23.25;19.75;;;;;8.44;78.72;102068.34;5044455;28;45464;-62
2024/01/29 06:23:56;;;;;;;;;13.00;11.75;;;;;8.44;78.70;102070.94;5037801;28;49746;-63
2024/01/29 06:26:21;;;;;;;;;27.00;18.75;;;;;8.44;79.02;102071.81;5038421;28;46258;-62
2024/01/29 06:28:47;;;;;;;;;24.25;20.25;;;;;8.44;79.53;102074.44;5039132;28;61499;-62
2024/01/29 06:31:13;;;;;;;;;18.50;15.75;;;;;8.48;78.73;102070.09;5032065;28;45416;-62
2024/01/29 06:33:39;;;;;;;;;24.00;19.50;;;;;8.48;78.99;102078.81;5037820;28;46108;-63
2024/01/29 06:36:05;;;;;;;;;24.50;19.00;;;;;8.49;78.95;102069.22;5038046;28;46304;-61
2024/01/29 06:38:31;;;;;;;;;19.25;18.50;;;;;8.47;79.15;102079.66;5041916;28;45528;-62
2024/01/29 06:40:57;;;;;;;;;23.75;18.75;;;;;8.45;78.97;102078.78;5069090;28;69343;-62
2024/01/29 06:43:22;;;;;;;;;24.50;19.25;;;;;8.45;78.95;102075.31;5036504;28;45412;-62
2024/01/29 06:45:47;;;;;;;;;29.50;21.00;;;;;8.43;78.78;102083.13;5040044;28;49196;-67
2024/01/29 06:48:13;;;;;;;;;23.25;20.25;;;;;8.42;78.56;102081.38;5068688;28;69980;-64
2024/01/29 06:50:40;;;;;;;;;24.25;20.25;;;;;8.39;78.72;102072.63;5037322;28;69387;-69
2024/01/29 06:53:05;;;;;;;;;22.50;17.25;;;;;8.38;78.59;102082.22;5038093;28;45507;-62
2024/01/29 06:55:30;;;;;;;;;20.00;17.00;;;;;8.33;78.75;102071.75;5038974;28;71330;-63
2024/01/29 06:57:56;;;;;;;;;19.50;15.75;;;;;8.33;78.78;102087.41;5041108;28;45462;-65
2024/01/29 07:00:21;;;;;;;;;30.50;21.75;;;;;8.33;78.71;102090.00;5041329;28;68079;-62
2024/01/29 07:02:47;;;;;;;;;22.75;18.00;;;;;8.32;78.80;102096.09;5045149;28;45351;-61
2024/01/29 07:05:12;;;;;;;;;28.75;21.00;;;;;8.30;78.83;102097.81;5045655;28;45655;-63
2024/01/29 07:07:37;;;;;;;;;23.00;21.00;;;;;8.29;78.77;102101.31;5042379;28;72148;-62
2024/01/29 07:10:03;;;;;;;;;19.00;16.25;;;;;8.29;78.77;102090.88;5048795;28;68204;-62
2024/01/29 07:12:28;;;;;;;;;24.25;21.75;;;;;8.27;79.06;102089.09;5045611;28;45335;-64
2024/01/29 07:14:55;;;;;;;;;30.00;19.25;;;;;8.27;79.01;102096.91;5039346;27;71964;-71
2024/01/29 07:17:20;;;;;;;;;26.00;20.25;;;;;8.25;79.20;102093.44;5039260;28;46114;-62
2024/01/29 07:19:48;;;;;;;;;25.00;20.00;;;;;8.23;78.95;102098.66;5041018;28;45446;-66
2024/01/29 07:22:18;;;;;;;;;32.50;20.75;;;;;8.24;78.88;102096.94;5040249;28;45446;-67
2024/01/29 07:24:46;;;;;;;;;27.25;20.00;;;;;8.21;79.04;102094.31;5040750;28;45380;-68
2024/01/29 07:27:11;;;;;;;;;27.75;22.25;;;;;8.20;79.12;102100.38;5038556;28;45731;-72
2024/01/29 07:29:37;;;;;;;;;24.50;20.00;;;;;8.21;79.26;102109.94;5037397;28;59700;-67
2024/01/29 07:32:02;;;;;;;;;33.00;24.00;;;;;8.22;79.14;102103.88;5037100;28;45521;-67
2024/01/29 07:34:28;;;;;;;;;26.00;19.25;;;;;8.23;79.07;102111.69;5037395;28;46936;-64
2024/01/29 07:36:53;;;;;;;;;31.00;23.25;;;;;8.24;79.41;102109.97;5040026;28;59753;-66
2024/01/29 07:39:18;;;;;;;;;26.25;24.50;;;;;8.27;79.17;102108.25;5053289;28;54797;-64
2024/01/29 07:41:45;;;;;;;;;30.25;26.25;;;;;8.29;79.32;102116.09;5042732;28;45282;-63
2024/01/29 07:44:10;;;;;;;;;60.00;42.50;;;;;8.33;79.31;102115.22;5041057;28;46015;-64
2024/01/29 07:46:36;;;;;;;;;26.25;23.50;;;;;8.35;79.17;102118.72;5029126;28;71668;-64
2024/01/29 07:49:03;;;;;;;;;25.00;21.50;;;;;8.39;79.37;102122.19;5041916;28;70408;-63
2024/01/29 07:51:29;;;;;;;;;21.75;19.75;;;;;8.41;79.39;102123.97;5047497;28;45573;-68
2024/01/29 07:53:54;;;;;;;;;26.50;19.25;;;;;8.43;79.19;102123.97;5047114;28;48138;-63
2024/01/29 07:56:19;;;;;;;;;25.00;21.00;;;;;8.50;78.95;102125.78;5047060;28;72274;-65
2024/01/29 07:58:45;;;;;;;;;23.25;17.75;;;;;8.52;78.81;102135.34;5045013;28;62845;-65
2024/01/29 08:01:10;;;;;;;;;23.50;18.25;;;;;8.52;78.95;102130.13;5040746;28;60395;-61
2024/01/29 08:03:35;;;;;;;;;25.75;17.50;;;;;8.58;78.79;102133.63;5040227;28;68580;-63
2024/01/29 08:06:01;;;;;;;;;30.25;19.75;;;;;8.60;78.74;102134.50;5045801;28;65891;-63
2024/01/29 08:08:28;;;;;;;;;23.50;18.50;;;;;8.64;78.54;102133.63;5072213;27;45446;-63
2024/01/29 08:10:55;;;;;;;;;20.75;20.25;;;;;8.67;78.61;102131.03;5038633;28;45405;-63
2024/01/29 08:13:20;;;;;;;;;23.50;19.00;;;;;8.70;78.71;102133.66;5040483;28;46490;-63
2024/01/29 08:15:46;;;;;;;;;24.50;22.50;;;;;8.72;78.36;102134.53;5039166;28;69942;-62
2024/01/29 08:18:11;;;;;;;;;23.00;17.00;;;;;8.76;78.44;102133.66;5039646;28;65582;-62
2024/01/29 08:20:36;;;;;;;;;17.25;15.50;;;;;8.81;78.60;102136.31;5039472;28;72426;-62
2024/01/29 08:23:02;;;;;;;;;26.00;18.75;;;;;8.85;78.25;102136.34;5041511;28;46428;-63
2024/01/29 08:25:27;;;;;;;;;22.50;18.25;;;;;8.88;78.52;102135.47;5054312;28;71994;-63
2024/01/29 08:27:52;;;;;;;;;21.25;18.00;;;;;8.91;78.46;102128.50;5045261;28;67144;-63
2024/01/29 08:30:17;;;;;;;;;21.50;16.75;;;;;8.98;78.32;102134.63;5043817;28;67468;-64
2024/01/29 08:32:44;;;;;;;;;22.50;20.50;;;;;9.06;78.33;102137.22;5045794;28;76023;-64
2024/01/29 08:35:10;;;;;;;;;22.50;17.25;;;;;9.12;78.12;102139.88;5059759;28;45350;-64
2024/01/29 08:37:35;;;;;;;;;28.25;20.00;;;;;9.18;78.00;102132.03;5040709;28;45477;-64
2024/01/29 08:40:01;;;;;;;;;22.75;18.00;;;;;9.26;77.82;102142.47;5058625;28;45588;-64
2024/01/29 08:42:26;;;;;;;;;22.75;20.75;;;;;9.34;77.82;102142.50;5040679;28;45356;-64
2024/01/29 08:44:56;;;;;;;;;25.00;18.25;;;;;9.41;77.59;102142.50;5040382;28;73451;-64
2024/01/29 08:47:22;;;;;;;;;28.00;18.75;;;;;9.48;77.62;102136.41;5040850;28;45213;-64
2024/01/29 08:49:47;;;;;;;;;21.25;17.75;;;;;9.55;77.55;102142.50;5041163;28;45556;-64
2024/01/29 08:52:13;;;;;;;;;23.25;21.00;;;;;9.63;77.28;102151.22;5023902;28;54703;-66
2024/01/29 08:54:38;;;;;;;;;21.50;17.00;;;;;9.69;77.06;102140.75;5072078;28;45429;-64
2024/01/29 08:57:04;;;;;;;;;20.25;19.50;;;;;9.78;76.79;102141.63;5039090;28;69296;-64
2024/01/29 08:59:31;;;;;;;;;25.00;21.50;;;;;9.86;77.12;102145.09;5039897;28;45427;-64
2024/01/29 09:01:57;;;;;;;;;17.50;15.00;;;;;9.91;76.95;102143.34;5040221;28;45468;-63
2024/01/29 09:04:22;;;;;;;;;22.25;19.25;;;;;10.02;76.65;102149.44;5040291;28;45249;-63
2024/01/29 09:06:48;;;;;;;;;23.75;20.25;;;;;10.12;76.46;102144.19;5040567;28;45234;-63
2024/01/29 09:09:14;;;;;;;;;21.75;16.75;;;;;10.21;76.18;102149.38;5040596;28;45222;-64
2024/01/29 09:11:39;;;;;;;;;21.50;16.50;;;;;10.29;76.36;102145.00;5038649;28;45316;-64
2024/01/29 09:14:04;;;;;;;;;20.00;17.50;;;;;10.37;76.08;102151.09;5038785;28;71763;-64
2024/01/29 09:16:30;;;;;;;;;21.00;18.75;;;;;10.43;75.59;102143.25;5038214;28;67981;-64
2024/01/29 09:18:55;;;;;;;;;23.75;17.50;;;;;10.50;75.18;102145.81;5043834;28;45296;-64
2024/01/29 09:21:20;;;;;;;;;20.00;18.00;;;;;10.58;75.40;102142.31;5039204;28;72804;-64
2024/01/29 09:23:46;;;;;;;;;29.00;20.25;;;;;10.62;75.27;102140.53;5039521;28;45341;-65
2024/01/29 09:26:11;;;;;;;;;24.50;18.25;;;;;10.67;75.29;102137.91;5038350;28;68285;-64
2024/01/29 09:28:37;;;;;;;;;22.25;19.75;;;;;10.69;74.65;102136.16;5038313;28;68868;-64
2024/01/29 09:31:03;;;;;;;;;24.75;19.00;;;;;10.72;74.78;102144.00;5038514;28;45414;-64
2024/01/29 09:33:28;;;;;;;;;17.75;17.75;;;;;10.74;74.45;102145.72;5039602;28;45468;-64
2024/01/29 09:35:54;;;;;;;;;21.50;18.50;;;;;10.75;73.95;102149.22;5042582;28;45364;-64
2024/01/29 09:38:19;;;;;;;;;25.75;20.75;;;;;10.77;73.90;102150.09;5049538;28;65749;-64
2024/01/29 09:40:45;;;;;;;;;22.00;18.75;;;;;10.78;73.70;102143.97;5046001;28;45482;-62
2024/01/29 09:43:12;;;;;;;;;24.75;21.50;;;;;10.81;73.62;102143.94;5045210;28;45357;-63
2024/01/29 09:45:39;;;;;;;;;27.25;23.00;;;;;10.85;73.78;102150.91;5044552;28;45325;-63
2024/01/29 09:48:05;;;;;;;;;26.25;18.25;;;;;10.85;73.61;102152.66;5043559;28;45522;-63
2024/01/29 09:50:30;;;;;;;;;28.25;25.25;;;;;10.82;73.25;102149.19;5058936;28;47302;-63
2024/01/29 09:52:56;;;;;;;;;27.25;25.00;;;;;10.85;72.93;102152.66;5040868;28;73297;-63
2024/01/29 09:55:23;;;;;;;;;30.25;25.00;;;;;10.86;72.89;102155.28;5041521;28;65381;-63
2024/01/29 09:57:49;;;;;;;;;35.50;28.75;;;;;10.87;73.11;102159.66;5042385;28;45504;-63
2024/01/29 10:00:15;;;;;;;;;35.50;26.25;;;;;10.91;73.00;102157.88;5040970;28;72008;-64
2024/01/29 10:02:42;;;;;;;;;30.50;26.25;;;;;10.92;73.07;102152.59;5035616;28;45552;-63
2024/01/29 10:05:11;;;;;;;;;24.00;20.50;;;;;10.95;72.82;102155.22;5040548;28;45437;-63
2024/01/29 10:07:37;;;;;;;;;26.25;18.00;;;;;10.97;72.70;102157.81;5074900;28;45534;-63
2024/01/29 10:10:09;;;;;;;;;39.00;24.50;;;;;10.97;72.81;102161.31;5042409;28;47267;-63
2024/01/29 10:12:35;;;;;;;;;40.75;27.50;;;;;10.99;73.10;102156.94;5045610;28;45445;-63
2024/01/29 10:15:00;;;;;;;;;32.75;27.25;;;;;11.02;73.05;102159.53;5042291;28;45311;-63
2024/01/29 10:17:26;;;;;;;;;27.00;22.00;;;;;11.03;72.58;102157.81;5041008;28;71976;-63
2024/01/29 10:19:51;;;;;;;;;34.00;23.50;;;;;11.05;72.48;102156.03;5041804;28;46415;-63
2024/01/29 10:22:17;;;;;;;;;28.25;21.25;;;;;11.10;72.60;102154.28;5040882;28;45366;-63
2024/01/29 10:24:43;;;;;;;;;26.50;24.50;;;;;11.12;72.33;102149.88;5042111;28;45442;-62
2024/01/29 10:27:08;;;;;;;;;30.50;23.75;;;;;11.18;72.65;102148.97;5044133;28;45564;-63
2024/01/29 10:29:46;;;;;;;;;33.00;19.50;;;;;11.26;72.74;102143.66;5041167;28;64456;-63
2024/01/29 10:32:11;;;;;;;;;27.75;22.50;;;;;11.32;72.28;102154.97;5041667;28;45566;-63
2024/01/29 10:34:37;;;;;;;;;24.75;22.25;;;;;11.41;72.66;102148.81;5056678;28;64634;-63
2024/01/29 10:37:03;;;;;;;;;24.00;20.50;;;;;11.49;72.36;102144.38;5073832;28;45585;-63
2024/01/29 10:39:30;;;;;;;;;28.75;23.00;;;;;11.58;72.18;102146.06;5045175;28;46387;-63
2024/01/29 10:41:56;;;;;;;;;30.25;21.25;;;;;11.66;71.94;102144.22;5041527;28;45374;-63
2024/01/29 10:44:22;;;;;;;;;29.75;22.00;;;;;11.71;71.83;102142.44;5039591;28;68271;-60
2024/01/29 10:46:47;;;;;;;;;28.25;23.75;;;;;11.75;71.62;102132.78;5040245;28;73553;-64
2024/01/29 10:49:12;;;;;;;;;20.75;19.50;;;;;11.78;71.62;102136.25;5041529;28;45776;-63
2024/01/29 10:51:40;;;;;;;;;23.25;21.25;;;;;11.85;70.98;102144.94;5041600;28;45304;-64
2024/01/29 10:54:07;;;;;;;;;28.00;21.50;;;;;11.91;71.25;102141.41;5041421;28;53237;-65
2024/01/29 10:56:32;;;;;;;;;25.00;21.00;;;;;11.96;71.03;102136.97;5057288;28;45545;-63
2024/01/29 10:58:59;;;;;;;;;25.50;21.75;;;;;12.03;70.96;102136.03;5041264;28;48795;-63
2024/01/29 11:01:25;;;;;;;;;29.00;23.00;;;;;12.10;70.75;102144.72;5044928;28;45513;-62
2024/01/29 11:03:51;;;;;;;;;28.50;21.50;;;;;12.17;70.65;102140.28;5059655;28;45431;-63
2024/01/29 11:06:42;;;;;;;;;37.00;24.50;;;;;12.27;70.07;102140.16;5044403;27;45350;-62
2024/01/29 11:09:12;;;;;;;;;27.75;21.50;;;;;12.41;69.66;102134.75;5037510;28;45426;-63